Time;durP1;ratioP1;P1;durP2;ratioP2;P2;SDS_P1;SDS_P2;PMS_P1;PMS_P2;Temp;Humidity;BMP_temperature;BMP_pressure;BME280_temperature;BME280_humidity;BME280_pressure;Samples;Min_cycle;Max_cycle;Signal;HPM_P1;HPM_P2
2022/10/23 00:01:16;;;;;;;2.80;1.63;;;14.00;99.90;;;;;;5081804;28;20028;-69
2022/10/23 00:03:43;;;;;;;2.25;1.15;;;14.00;99.90;;;;;;5074934;28;20032;-69
2022/10/23 00:06:10;;;;;;;1.33;1.20;;;14.00;99.90;;;;;;5075115;28;20047;-70
2022/10/23 00:08:36;;;;;;;8.98;1.48;;;14.00;99.90;;;;;;5074628;28;20103;-69
2022/10/23 00:11:06;;;;;;;2.10;1.17;;;14.00;99.90;;;;;;5075077;28;20024;-69
2022/10/23 00:13:31;;;;;;;1.55;1.20;;;14.00;99.90;;;;;;5074719;28;20077;-69
2022/10/23 00:15:57;;;;;;;3.85;1.30;;;14.00;99.90;;;;;;5074582;28;20025;-69
2022/10/23 00:18:23;;;;;;;1.83;1.45;;;14.00;99.90;;;;;;5075033;28;20146;-68
2022/10/23 00:20:48;;;;;;;2.92;1.30;;;14.00;99.90;;;;;;5074231;28;20162;-69
2022/10/23 00:23:16;;;;;;;1.45;1.20;;;14.00;99.90;;;;;;5086879;28;20049;-68
2022/10/23 00:25:41;;;;;;;1.50;1.20;;;14.00;99.90;;;;;;5093784;28;20388;-68
2022/10/23 00:28:07;;;;;;;2.80;1.70;;;14.00;99.90;;;;;;5094486;28;20030;-69
2022/10/23 00:30:33;;;;;;;3.22;1.30;;;14.00;99.90;;;;;;5094621;28;20028;-70
2022/10/23 00:32:58;;;;;;;2.65;1.25;;;14.00;99.90;;;;;;5094802;28;20032;-69
2022/10/23 00:35:24;;;;;;;3.40;1.35;;;14.00;99.90;;;;;;5094591;28;20073;-68
2022/10/23 00:37:50;;;;;;;5.38;1.60;;;13.90;99.90;;;;;;5094853;28;20028;-68
2022/10/23 00:40:15;;;;;;;2.10;1.60;;;13.90;99.90;;;;;;5094639;28;20369;-68
2022/10/23 00:42:41;;;;;;;1.55;1.20;;;13.90;99.90;;;;;;5094353;28;20109;-69
2022/10/23 00:45:12;;;;;;;1.95;1.38;;;13.90;99.90;;;;;;5094661;28;20024;-69
2022/10/23 00:47:38;;;;;;;2.30;1.42;;;13.90;99.90;;;;;;5094271;28;20082;-69
2022/10/23 00:50:04;;;;;;;1.30;1.20;;;13.80;99.90;;;;;;5094588;28;20477;-69
2022/10/23 00:52:31;;;;;;;3.22;1.48;;;13.80;99.90;;;;;;5093912;28;20028;-68
2022/10/23 00:54:57;;;;;;;3.13;1.30;;;13.80;99.90;;;;;;5094895;28;20035;-68
2022/10/23 00:57:23;;;;;;;2.92;1.48;;;13.80;99.90;;;;;;5094488;28;20076;-69
2022/10/23 00:59:49;;;;;;;1.45;1.20;;;13.80;99.90;;;;;;5093927;28;20028;-68
2022/10/23 01:02:15;;;;;;;2.15;1.60;;;13.70;99.90;;;;;;5093588;28;20531;-69
2022/10/23 01:04:41;;;;;;;3.67;1.70;;;13.70;99.90;;;;;;5093902;28;20376;-68
2022/10/23 01:07:23;;;;;;;3.53;1.40;;;13.70;99.90;;;;;;5094319;28;20039;-68
2022/10/23 01:10:02;;;;;;;2.47;1.50;;;13.60;99.90;;;;;;5093891;28;20297;-68
2022/10/23 01:12:58;;;;;;;2.20;1.55;;;13.60;99.90;;;;;;5094189;28;20032;-68
2022/10/23 01:15:42;;;;;;;2.22;1.50;;;13.60;99.90;;;;;;5093989;28;20330;-68
2022/10/23 01:18:25;;;;;;;1.77;1.48;;;13.60;99.90;;;;;;5094362;28;20028;-69
2022/10/23 01:21:12;;;;;;;3.45;2.00;;;13.50;99.90;;;;;;5093329;28;20388;-70
2022/10/23 01:24:08;;;;;;;2.13;1.67;;;13.50;99.90;;;;;;5092923;28;20035;-68
2022/10/23 01:26:59;;;;;;;4.25;1.80;;;13.50;99.90;;;;;;5073111;28;20107;-68
2022/10/23 01:29:30;;;;;;;;;;;13.40;99.90;;;;;;5073656;28;20051;-67
2022/10/23 01:32:02;;;;;;;3.33;2.38;;;13.40;99.90;;;;;;5073679;28;19904;-68
2022/10/23 01:34:45;;;;;;;2.00;1.70;;;13.40;99.90;;;;;;5073145;28;20366;-69
2022/10/23 01:37:14;;;;;;;5.10;1.80;;;13.40;99.90;;;;;;5073413;28;20024;-69
2022/10/23 01:39:46;;;;;;;3.10;2.13;;;13.30;99.90;;;;;;5072091;28;20040;-68
2022/10/23 01:42:18;;;;;;;3.05;1.90;;;13.30;99.90;;;;;;5073414;28;20032;-69
2022/10/23 01:44:46;;;;;;;2.58;2.10;;;13.30;99.90;;;;;;5072844;28;20028;-69
2022/10/23 01:47:14;;;;;;;2.60;2.03;;;13.20;99.90;;;;;;5073466;28;20031;-69
2022/10/23 01:49:41;;;;;;;5.28;2.30;;;13.20;99.90;;;;;;5072499;28;20117;-69
2022/10/23 01:52:11;;;;;;;4.60;1.92;;;13.20;99.90;;;;;;5072857;28;20035;-68
2022/10/23 01:54:40;;;;;;;3.72;2.10;;;13.20;99.90;;;;;;5072693;28;20028;-68
2022/10/23 01:57:09;;;;;;;3.85;2.10;;;13.20;99.90;;;;;;5073038;28;20055;-68
2022/10/23 01:59:40;;;;;;;3.67;2.15;;;13.10;99.90;;;;;;5072284;28;20035;-69
2022/10/23 02:02:09;;;;;;;3.95;1.90;;;13.10;99.90;;;;;;5071837;28;20035;-70
2022/10/23 02:04:46;;;;;;;2.58;1.90;;;13.10;99.90;;;;;;5071369;28;20024;-69
2022/10/23 02:07:12;;;;;;;2.35;2.00;;;13.10;99.90;;;;;;5072008;28;20029;-69
2022/10/23 02:09:38;;;;;;;2.10;1.50;;;13.10;99.90;;;;;;5071350;28;20128;-70
2022/10/23 02:12:18;;;;;;;3.20;2.13;;;13.10;99.90;;;;;;5071806;28;20043;-70
2022/10/23 02:14:52;;;;;;;2.85;2.05;;;13.10;99.90;;;;;;5071530;28;20427;-70
2022/10/23 02:17:36;;;;;;;2.13;1.85;;;13.10;99.90;;;;;;5071998;28;20104;-69
2022/10/23 02:20:19;;;;;;;3.05;1.90;;;13.10;99.90;;;;;;5071879;28;20036;-69
2022/10/23 02:23:04;;;;;;;2.35;1.90;;;13.10;99.90;;;;;;5071616;28;20119;-69
2022/10/23 02:25:35;;;;;;;2.65;1.70;;;13.10;99.90;;;;;;5072864;28;20027;-69
2022/10/23 02:28:07;;;;;;;2.72;1.98;;;13.00;99.90;;;;;;5088273;28;20423;-69
2022/10/23 02:30:36;;;;;;;4.50;1.83;;;13.00;99.90;;;;;;5092551;28;20496;-69
2022/10/23 02:33:03;;;;;;;2.75;1.83;;;12.90;99.90;;;;;;5074183;28;20032;-69
2022/10/23 02:35:29;;;;;;;2.03;1.50;;;12.90;99.90;;;;;;5092689;28;20020;-69
2022/10/23 02:37:58;;;;;;;2.70;1.75;;;12.90;99.90;;;;;;5092123;28;20035;-69
2022/10/23 02:40:30;;;;;;;2.40;1.85;;;12.90;99.90;;;;;;5092612;28;20103;-69
2022/10/23 02:43:02;;;;;;;3.38;1.40;;;12.90;99.90;;;;;;5092141;28;20028;-69
2022/10/23 02:45:35;;;;;;;2.28;1.58;;;12.90;99.90;;;;;;5092540;28;20028;-68
2022/10/23 02:48:03;;;;;;;2.35;2.15;;;12.90;99.90;;;;;;5092997;28;20032;-69
2022/10/23 02:50:56;;;;;;;2.22;1.70;;;12.90;99.90;;;;;;5095475;28;20039;-69
2022/10/23 02:53:46;;;;;;;2.42;1.60;;;12.80;99.90;;;;;;5097193;28;20054;-69
2022/10/23 02:56:42;;;;;;;2.90;1.53;;;12.80;99.90;;;;;;5096598;28;20365;-69
2022/10/23 02:59:23;;;;;;;3.03;1.60;;;12.80;99.90;;;;;;5095663;28;20115;-69
2022/10/23 03:01:54;;;;;;;3.13;1.90;;;12.80;99.90;;;;;;5096369;28;20040;-69
2022/10/23 03:04:23;;;;;;;2.30;1.60;;;12.80;99.90;;;;;;5097008;28;20056;-69
2022/10/23 03:06:50;;;;;;;3.53;2.08;;;12.70;99.90;;;;;;5095903;28;20038;-69
2022/10/23 03:09:16;;;;;;;3.20;1.48;;;12.60;99.90;;;;;;5096538;28;20028;-69
2022/10/23 03:11:42;;;;;;;3.78;1.75;;;12.60;99.90;;;;;;5095863;28;20028;-69
2022/10/23 03:14:09;;;;;;;2.40;1.63;;;12.50;99.90;;;;;;5096236;28;20112;-69
2022/10/23 03:16:35;;;;;;;3.85;1.98;;;12.50;99.90;;;;;;5095734;28;20560;-69
2022/10/23 03:19:00;;;;;;;5.63;2.03;;;12.40;99.90;;;;;;5095397;28;20095;-68
2022/10/23 03:21:26;;;;;;;2.58;1.77;;;12.40;99.90;;;;;;5095778;28;20024;-67
2022/10/23 03:23:52;;;;;;;4.85;2.00;;;12.40;99.90;;;;;;5095780;28;20396;-68
2022/10/23 03:26:17;;;;;;;3.22;2.00;;;12.40;99.90;;;;;;5096179;28;20060;-68
2022/10/23 03:28:43;;;;;;;3.35;2.10;;;12.40;99.90;;;;;;5095843;28;20024;-69
2022/10/23 03:31:09;;;;;;;2.80;2.22;;;12.40;99.90;;;;;;5095965;28;20028;-69
2022/10/23 03:33:34;;;;;;;2.22;1.90;;;12.40;99.90;;;;;;5095528;28;20111;-69
2022/10/23 03:36:00;;;;;;;3.35;2.45;;;12.40;99.90;;;;;;5095890;28;20150;-69
2022/10/23 03:38:25;;;;;;;3.83;2.42;;;12.30;99.90;;;;;;5096156;28;20066;-68
2022/10/23 03:40:51;;;;;;;2.88;2.10;;;12.30;99.90;;;;;;5095393;28;20032;-69
2022/10/23 03:43:17;;;;;;;3.53;2.55;;;12.30;99.90;;;;;;5095825;28;20028;-69
2022/10/23 03:45:42;;;;;;;8.95;2.75;;;12.20;99.90;;;;;;5093053;28;20388;-69
2022/10/23 03:48:08;;;;;;;3.85;2.30;;;12.20;99.90;;;;;;5074346;28;20052;-68
2022/10/23 03:50:34;;;;;;;2.72;2.17;;;12.20;99.90;;;;;;5075569;28;20027;-68
2022/10/23 03:53:00;;;;;;;3.45;2.15;;;12.10;99.90;;;;;;5073841;28;20248;-69
2022/10/23 03:55:26;;;;;;;4.20;2.60;;;12.10;99.90;;;;;;5074614;28;20040;-68
2022/10/23 03:57:54;;;;;;;3.95;2.58;;;12.10;99.90;;;;;;5075088;28;20039;-68
2022/10/23 04:00:20;;;;;;;5.10;2.50;;;12.10;99.90;;;;;;5074903;28;20150;-67
2022/10/23 04:02:46;;;;;;;4.32;2.63;;;12.10;99.90;;;;;;5074451;28;20464;-68
2022/10/23 04:05:12;;;;;;;4.05;3.00;;;12.10;99.90;;;;;;5074998;28;20037;-69
2022/10/23 04:07:38;;;;;;;5.10;2.65;;;12.00;99.90;;;;;;5075128;28;20031;-69
2022/10/23 04:10:04;;;;;;;6.15;2.30;;;12.00;99.90;;;;;;5074949;28;20479;-67
2022/10/23 04:12:30;;;;;;;3.28;2.50;;;12.00;99.90;;;;;;5075219;28;20040;-68
2022/10/23 04:14:56;;;;;;;3.13;2.45;;;11.90;99.90;;;;;;5074863;28;20021;-69
2022/10/23 04:17:21;;;;;;;3.47;2.53;;;11.90;99.90;;;;;;5075459;28;20032;-68
2022/10/23 04:19:47;;;;;;;4.47;2.63;;;11.90;99.90;;;;;;5074736;28;20025;-69
2022/10/23 04:22:12;;;;;;;3.75;2.72;;;11.90;99.90;;;;;;5074900;28;20029;-68
2022/10/23 04:24:42;;;;;;;3.72;2.90;;;11.80;99.90;;;;;;5074768;28;20029;-68
2022/10/23 04:27:08;;;;;;;5.82;3.33;;;11.80;99.90;;;;;;5074905;28;20414;-69
2022/10/23 04:29:33;;;;;;;6.28;3.20;;;11.80;99.90;;;;;;5083080;28;20114;-68
2022/10/23 04:31:59;;;;;;;5.85;3.05;;;11.80;99.90;;;;;;5094475;28;20412;-68
2022/10/23 04:34:25;;;;;;;3.95;2.72;;;11.80;99.90;;;;;;5094758;28;20036;-68
2022/10/23 04:36:50;;;;;;;3.60;2.53;;;11.70;99.90;;;;;;5094758;28;20024;-69
2022/10/23 04:39:16;;;;;;;4.50;2.80;;;11.70;99.90;;;;;;5094680;28;20077;-68
2022/10/23 04:41:41;;;;;;;5.13;2.78;;;11.70;99.90;;;;;;5095025;28;20028;-68
2022/10/23 04:44:07;;;;;;;4.22;3.13;;;11.70;99.90;;;;;;5094302;28;20357;-70
2022/10/23 04:46:33;;;;;;;4.75;2.67;;;11.70;99.90;;;;;;5077698;28;20111;-68
2022/10/23 04:48:58;;;;;;;5.50;2.85;;;11.60;99.90;;;;;;5074000;28;20047;-69
2022/10/23 04:51:24;;;;;;;4.03;2.63;;;11.60;99.90;;;;;;5074657;28;20028;-69
2022/10/23 04:53:50;;;;;;;6.93;2.90;;;11.60;99.90;;;;;;5073754;28;20064;-69
2022/10/23 04:56:15;;;;;;;3.85;2.92;;;11.60;99.90;;;;;;5056385;28;20076;-69
2022/10/23 04:58:41;;;;;;;6.85;2.67;;;11.60;99.90;;;;;;5074150;28;20067;-68
2022/10/23 05:01:09;;;;;;;4.35;2.92;;;11.50;99.90;;;;;;5074357;28;20024;-69
2022/10/23 05:03:35;;;;;;;3.70;2.90;;;11.50;99.90;;;;;;5074330;28;20350;-68
2022/10/23 05:06:02;;;;;;;5.38;2.83;;;11.50;99.90;;;;;;5073631;28;20099;-67
2022/10/23 05:08:28;;;;;;;6.43;3.65;;;11.50;99.90;;;;;;5074310;28;20046;-69
2022/10/23 05:10:53;;;;;;;4.68;3.25;;;11.50;99.90;;;;;;5073898;28;20028;-70
2022/10/23 05:13:19;;;;;;;5.63;3.20;;;11.50;99.90;;;;;;5073840;28;20071;-69
2022/10/23 05:15:58;;;;;;;5.28;3.45;;;11.40;99.90;;;;;;5073996;28;20048;-69
2022/10/23 05:18:29;;;;;;;4.97;3.63;;;11.40;99.90;;;;;;5074185;28;20380;-69
2022/10/23 05:21:00;;;;;;;;;;;11.40;99.90;;;;;;5073748;28;20082;-70
2022/10/23 05:23:28;;;;;;;6.28;4.07;;;11.40;99.90;;;;;;5074043;28;19950;-68
2022/10/23 05:25:53;;;;;;;10.82;4.28;;;11.30;99.90;;;;;;5073476;28;20032;-68
2022/10/23 05:28:19;;;;;;;5.05;3.67;;;11.30;99.90;;;;;;5055990;28;20115;-68
2022/10/23 05:30:45;;;;;;;5.05;3.47;;;11.20;99.90;;;;;;5073533;28;20043;-68
2022/10/23 05:33:11;;;;;;;4.65;3.40;;;11.30;99.90;;;;;;5073197;28;20082;-68
2022/10/23 05:35:38;;;;;;;6.65;3.53;;;11.20;99.90;;;;;;5073511;28;20021;-68
2022/10/23 05:38:05;;;;;;;5.47;3.58;;;11.20;99.90;;;;;;5072979;28;20021;-68
2022/10/23 05:40:31;;;;;;;5.45;3.35;;;11.20;99.90;;;;;;5073521;28;20056;-69
2022/10/23 05:42:57;;;;;;;7.75;3.83;;;11.10;99.90;;;;;;5072885;28;20047;-69
2022/10/23 05:45:22;;;;;;;5.60;3.80;;;11.00;99.90;;;;;;5073478;28;20031;-68
2022/10/23 05:47:48;;;;;;;4.57;3.42;;;11.00;99.90;;;;;;5073431;28;20024;-68
2022/10/23 05:50:14;;;;;;;8.15;3.80;;;11.00;99.90;;;;;;5055034;28;20078;-69
2022/10/23 05:52:39;;;;;;;6.50;4.00;;;11.00;99.90;;;;;;5072937;28;20107;-71
2022/10/23 05:55:06;;;;;;;9.50;4.30;;;11.00;99.90;;;;;;5072616;28;20037;-68
2022/10/23 05:57:32;;;;;;;6.53;3.50;;;10.90;99.90;;;;;;5073395;28;20054;-69
2022/10/23 05:59:58;;;;;;;5.90;3.60;;;10.90;99.90;;;;;;5072368;28;20052;-69
2022/10/23 06:02:24;;;;;;;5.65;3.88;;;10.90;99.90;;;;;;5072914;28;20110;-69
2022/10/23 06:04:49;;;;;;;5.13;3.63;;;10.90;99.90;;;;;;5073089;28;20032;-68
2022/10/23 06:07:15;;;;;;;7.53;4.03;;;10.90;99.90;;;;;;5072727;28;20032;-68
2022/10/23 06:09:41;;;;;;;6.00;3.42;;;10.90;99.90;;;;;;5073047;28;20526;-68
2022/10/23 06:12:06;;;;;;;5.47;3.88;;;10.90;99.90;;;;;;5072643;28;20047;-68
2022/10/23 06:14:32;;;;;;;5.13;3.85;;;11.00;99.90;;;;;;5072618;28;20055;-68
2022/10/23 06:16:57;;;;;;;5.78;3.90;;;11.00;99.90;;;;;;5072512;28;20028;-68
2022/10/23 06:19:23;;;;;;;5.13;3.45;;;11.00;99.90;;;;;;5072810;28;20461;-68
2022/10/23 06:21:49;;;;;;;7.18;4.20;;;11.10;99.90;;;;;;5072533;28;20440;-68
2022/10/23 06:24:14;;;;;;;8.15;4.10;;;11.10;99.90;;;;;;5083856;28;20051;-68
2022/10/23 06:26:40;;;;;;;5.53;3.70;;;11.10;99.90;;;;;;5093178;28;20024;-68
2022/10/23 06:29:06;;;;;;;5.50;3.55;;;11.10;99.90;;;;;;5092188;28;20020;-68
2022/10/23 06:31:31;;;;;;;5.15;3.63;;;11.10;99.90;;;;;;5092717;28;20020;-67
2022/10/23 06:33:58;;;;;;;7.00;4.15;;;11.10;99.90;;;;;;5092604;28;20033;-68
2022/10/23 06:36:25;;;;;;;6.20;3.95;;;11.00;99.90;;;;;;5092694;28;20028;-67
2022/10/23 06:38:51;;;;;;;8.20;3.55;;;11.10;99.90;;;;;;5092915;28;20028;-68
2022/10/23 06:41:19;;;;;;;5.68;4.15;;;11.10;99.90;;;;;;5074226;28;20132;-68
2022/10/23 06:43:48;;;;;;;11.65;4.38;;;11.10;99.90;;;;;;5092730;28;20028;-68
2022/10/23 06:46:14;;;;;;;5.93;4.30;;;11.10;99.90;;;;;;5092233;28;20538;-68
2022/10/23 06:48:43;;;;;;;6.18;3.72;;;11.10;99.90;;;;;;5092906;28;20029;-68
2022/10/23 06:51:12;;;;;;;7.72;4.15;;;11.10;99.90;;;;;;5092239;28;20461;-68
2022/10/23 06:53:38;;;;;;;6.32;4.10;;;11.20;99.90;;;;;;5092479;28;20070;-68
2022/10/23 06:56:05;;;;;;;6.00;3.78;;;11.20;99.90;;;;;;5091978;28;20431;-69
2022/10/23 06:58:32;;;;;;;5.93;3.40;;;11.30;99.90;;;;;;5092409;28;20032;-68
2022/10/23 07:01:03;;;;;;;4.35;3.20;;;11.40;99.90;;;;;;5092014;28;20029;-69
2022/10/23 07:03:29;;;;;;;4.30;2.83;;;11.40;99.90;;;;;;5092240;28;20538;-68
2022/10/23 07:05:55;;;;;;;4.60;3.40;;;11.50;99.90;;;;;;5092124;28;20024;-67
2022/10/23 07:08:21;;;;;;;5.13;3.30;;;11.50;99.90;;;;;;5092108;28;20051;-67
2022/10/23 07:10:47;;;;;;;6.10;3.45;;;11.60;99.90;;;;;;5092366;28;20020;-68
2022/10/23 07:13:13;;;;;;;5.50;3.50;;;11.80;99.90;;;;;;5091972;28;20071;-68
2022/10/23 07:15:39;;;;;;;3.78;3.10;;;12.00;99.90;;;;;;5078651;28;20400;-69
2022/10/23 07:18:05;;;;;;;4.38;2.83;;;12.30;99.90;;;;;;5071414;28;20415;-68
2022/10/23 07:20:31;;;;;;;7.53;3.42;;;12.50;99.90;;;;;;5072457;28;20065;-69
2022/10/23 07:22:57;;;;;;;4.18;3.22;;;12.80;99.90;;;;;;5071690;28;20528;-68
2022/10/23 07:25:24;;;;;;;6.32;3.40;;;13.00;99.90;;;;;;5072108;28;20029;-69
2022/10/23 07:27:50;;;;;;;5.88;2.70;;;13.30;99.90;;;;;;5071987;28;20033;-68
2022/10/23 07:30:16;;;;;;;6.57;2.75;;;13.50;99.90;;;;;;5071709;28;20036;-70
2022/10/23 07:32:43;;;;;;;5.55;2.78;;;13.70;99.90;;;;;;5072049;28;20047;-67
2022/10/23 07:35:10;;;;;;;5.15;3.20;;;14.00;99.90;;;;;;5071684;28;20078;-68
2022/10/23 07:37:36;;;;;;;4.00;2.50;;;14.20;99.90;;;;;;5075787;28;20028;-68
2022/10/23 07:40:03;;;;;;;3.25;2.60;;;14.40;99.90;;;;;;5074704;28;20487;-68
2022/10/23 07:42:29;;;;;;;3.88;2.80;;;14.60;99.90;;;;;;5075642;28;20082;-69
2022/10/23 07:44:54;;;;;;;5.65;3.00;;;14.90;99.90;;;;;;5076065;28;20025;-69
2022/10/23 07:47:20;;;;;;;5.80;2.90;;;15.20;99.90;;;;;;5075324;28;20060;-69
2022/10/23 07:49:47;;;;;;;5.80;3.90;;;15.40;99.90;;;;;;5074778;28;20464;-68
2022/10/23 07:52:13;;;;;;;4.95;3.53;;;15.50;99.90;;;;;;5074593;28;20107;-68
2022/10/23 07:54:38;;;;;;;5.97;3.40;;;15.70;98.60;;;;;;5075194;28;20166;-68
2022/10/23 07:57:06;;;;;;;6.18;3.45;;;15.90;98.10;;;;;;5075671;28;20048;-68
2022/10/23 07:59:33;;;;;;;6.32;3.33;;;16.10;97.80;;;;;;5057468;28;20468;-68
2022/10/23 08:01:58;;;;;;;4.45;3.28;;;16.30;96.40;;;;;;5075432;28;20043;-68
2022/10/23 08:04:24;;;;;;;4.90;3.38;;;16.50;96.40;;;;;;5074801;28;20028;-69
2022/10/23 08:06:50;;;;;;;3.92;3.22;;;16.60;95.10;;;;;;5075320;28;20070;-68
2022/10/23 08:09:15;;;;;;;5.80;3.90;;;16.70;94.80;;;;;;5056896;28;20078;-68
2022/10/23 08:11:41;;;;;;;4.38;3.40;;;16.80;94.90;;;;;;5075232;28;20078;-68
2022/10/23 08:14:08;;;;;;;5.05;3.30;;;16.90;94.40;;;;;;5074633;28;20428;-68
2022/10/23 08:16:36;;;;;;;4.22;3.28;;;17.00;93.40;;;;;;5074612;28;20031;-68
2022/10/23 08:19:03;;;;;;;3.40;2.92;;;17.00;93.30;;;;;;5074326;28;20082;-67
2022/10/23 08:21:29;;;;;;;5.53;3.78;;;17.00;92.90;;;;;;5073831;28;20111;-68
2022/10/23 08:23:56;;;;;;;5.38;4.10;;;17.00;93.00;;;;;;5074960;28;20025;-68
2022/10/23 08:26:23;;;;;;;6.03;4.53;;;17.10;92.90;;;;;;5074102;28;20464;-68
2022/10/23 08:28:50;;;;;;;7.95;4.05;;;17.10;92.40;;;;;;5074807;28;20457;-68
2022/10/23 08:31:17;;;;;;;5.07;3.95;;;17.30;93.00;;;;;;5078060;28;20055;-68
2022/10/23 08:33:44;;;;;;;4.32;3.75;;;17.30;92.90;;;;;;5054286;28;20037;-69
2022/10/23 08:36:24;;;;;;;5.45;3.70;;;17.40;92.50;;;;;;5054321;28;20444;-69
2022/10/23 08:38:52;;;;;;;6.00;4.20;;;17.50;92.40;;;;;;5054754;28;20112;-69
2022/10/23 08:41:39;;;;;;;6.53;5.13;;;17.60;92.10;;;;;;5054215;28;20031;-69
2022/10/23 08:44:18;;;;;;;6.22;4.72;;;17.70;91.70;;;;;;5054055;28;20025;-69
2022/10/23 08:47:09;;;;;;;9.30;5.15;;;17.60;90.70;;;;;;5053601;28;20060;-69
2022/10/23 08:49:46;;;;;;;5.28;4.40;;;17.70;91.20;;;;;;5054215;28;20059;-68
2022/10/23 08:52:24;;;;;;;5.20;4.50;;;17.70;91.00;;;;;;5053650;28;20505;-69
2022/10/23 08:54:53;;;;;;;4.65;4.15;;;17.80;90.20;;;;;;5054504;28;20029;-67
2022/10/23 08:57:22;;;;;;;6.28;4.30;;;17.80;89.70;;;;;;5053919;28;20045;-67
2022/10/23 09:00:11;;;;;;;3.78;3.22;;;17.80;90.40;;;;;;5054306;28;20029;-68
2022/10/23 09:02:48;;;;;;;4.32;3.45;;;17.90;90.50;;;;;;5056648;28;20035;-69
2022/10/23 09:05:50;;;;;;;6.35;4.97;;;18.00;90.10;;;;;;5071739;28;20028;-69
2022/10/23 09:08:24;;;;;;;4.93;4.43;;;18.10;89.90;;;;;;5071875;28;20034;-70
2022/10/23 09:11:02;;;;;;;5.78;5.03;;;18.20;88.70;;;;;;5071558;28;20032;-69
2022/10/23 09:13:39;;;;;;;7.45;5.82;;;18.20;86.90;;;;;;5070290;28;20116;-69
2022/10/23 09:16:21;;;;;;;8.85;6.13;;;18.20;86.80;;;;;;5072974;28;20025;-68
2022/10/23 09:18:48;;;;;;;8.20;6.40;;;18.30;85.40;;;;;;5070360;28;20122;-68
2022/10/23 09:21:14;;;;;;;9.80;7.03;;;18.30;84.80;;;;;;5050057;28;20469;-69
2022/10/23 09:23:40;;;;;;;12.18;8.15;;;18.20;85.10;;;;;;5074054;28;20421;-70
2022/10/23 09:26:14;;;;;;;12.65;8.88;;;18.10;85.10;;;;;;5073226;28;20059;-68
2022/10/23 09:29:23;;;;;;;14.32;10.43;;;18.10;86.20;;;;;;5073561;28;20035;-68
2022/10/23 09:31:55;;;;;;;15.77;11.82;;;18.20;85.10;;;;;;5073785;28;20024;-68
2022/10/23 09:34:23;;;;;;;15.80;11.40;;;18.20;85.00;;;;;;5073302;28;20028;-68
2022/10/23 09:37:01;;;;;;;17.83;11.63;;;18.20;85.40;;;;;;5073645;28;20421;-69
2022/10/23 09:39:29;;;;;;;18.85;12.88;;;18.10;85.50;;;;;;5054989;28;20037;-68
2022/10/23 09:41:56;;;;;;;19.98;13.50;;;18.10;86.00;;;;;;5073593;28;20028;-68
2022/10/23 09:44:30;;;;;;;21.63;13.25;;;18.20;85.00;;;;;;5073229;28;20028;-68
2022/10/23 09:47:00;;;;;;;19.65;12.35;;;18.10;85.60;;;;;;5073038;28;20028;-67
2022/10/23 09:49:29;;;;;;;20.60;14.10;;;18.00;85.60;;;;;;5073159;28;20020;-67
2022/10/23 09:52:04;;;;;;;22.42;14.48;;;18.00;85.80;;;;;;5055463;28;20419;-68
2022/10/23 09:54:38;;;;;;;21.08;14.18;;;18.00;86.50;;;;;;5072627;28;20094;-69
2022/10/23 09:57:35;;;;;;;18.38;12.95;;;17.90;86.30;;;;;;5073145;28;20468;-68
2022/10/23 10:00:14;;;;;;;17.15;11.57;;;18.10;86.60;;;;;;5072318;28;20024;-67
2022/10/23 10:02:42;;;;;;;15.73;11.55;;;18.10;87.70;;;;;;5073125;28;20033;-68
2022/10/23 10:05:25;;;;;;;18.85;12.15;;;18.20;85.80;;;;;;5072985;28;20055;-68
2022/10/23 10:08:14;;;;;;;16.98;11.43;;;18.20;86.40;;;;;;5073162;28;20028;-69
2022/10/23 10:11:12;;;;;;;16.30;11.10;;;18.20;86.10;;;;;;5072378;28;20052;-69
2022/10/23 10:14:19;;;;;;;15.05;11.20;;;18.20;84.90;;;;;;5024114;28;20093;-69
2022/10/23 10:16:57;;;;;;;16.08;12.13;;;18.20;85.60;;;;;;5046116;28;20047;-68
2022/10/23 10:19:47;;;;;;;9.23;7.00;;;18.30;86.50;;;;;;5070060;28;20032;-69
2022/10/23 10:22:27;;;;;;;14.85;7.05;;;18.50;83.70;;;;;;5071118;28;20024;-69
2022/10/23 10:25:15;;;;;;;4.87;4.20;;;18.60;82.60;;;;;;5072123;28;20040;-68
2022/10/23 10:28:03;;;;;;;5.93;4.43;;;18.80;81.80;;;;;;5070264;28;20094;-68
2022/10/23 10:30:40;;;;;;;4.30;3.90;;;18.70;78.70;;;;;;5087335;28;20069;-68
2022/10/23 10:33:21;;;;;;;4.90;4.40;;;18.80;79.00;;;;;;5092735;28;20027;-69
2022/10/23 10:36:06;;;;;;;7.05;4.18;;;18.80;77.40;;;;;;5093066;28;20032;-68
2022/10/23 10:38:43;;;;;;;6.20;3.90;;;18.80;78.40;;;;;;5092065;28;20392;-68
2022/10/23 10:41:28;;;;;;;4.00;3.60;;;18.80;79.10;;;;;;5092824;28;20472;-68
2022/10/23 10:44:05;;;;;;;4.05;3.25;;;18.80;77.50;;;;;;5092871;28;20027;-67
2022/10/23 10:46:48;;;;;;;4.03;3.47;;;18.80;77.60;;;;;;5092166;28;20090;-68
2022/10/23 10:49:25;;;;;;;4.88;3.28;;;18.80;77.10;;;;;;5092679;28;20028;-67
2022/10/23 10:52:01;;;;;;;3.60;3.20;;;18.90;77.00;;;;;;5092835;28;20028;-70
2022/10/23 10:54:52;;;;;;;4.25;3.80;;;18.80;77.90;;;;;;5069188;28;20033;-70
2022/10/23 10:57:25;;;;;;;3.95;3.65;;;18.80;78.10;;;;;;5071629;28;20507;-67
2022/10/23 10:59:55;;;;;;;4.18;3.78;;;18.80;77.60;;;;;;5062218;28;20032;-68
2022/10/23 11:02:28;;;;;;;3.50;3.20;;;18.70;77.60;;;;;;5065993;28;20036;-68
2022/10/23 11:05:04;;;;;;;5.65;3.53;;;18.70;77.00;;;;;;5063013;28;20071;-68
2022/10/23 11:07:39;;;;;;;3.55;3.25;;;18.60;77.80;;;;;;5051858;28;20036;-68
2022/10/23 11:10:15;;;;;;;4.55;3.33;;;18.60;78.40;;;;;;5061520;28;20025;-68
2022/10/23 11:12:44;;;;;;;3.92;3.10;;;18.70;78.90;;;;;;5071655;28;20108;-67
2022/10/23 11:15:25;;;;;;;4.28;3.47;;;18.70;79.00;;;;;;5076336;28;20028;-67
2022/10/23 11:17:55;;;;;;;;;;;18.70;78.50;;;;;;5066734;28;20066;-67
2022/10/23 11:20:27;;;;;;;5.45;3.45;;;18.70;78.70;;;;;;5076124;28;20213;-68
2022/10/23 11:22:55;;;;;;;4.05;3.65;;;18.70;78.90;;;;;;5076044;28;20039;-68
2022/10/23 11:25:35;;;;;;;4.13;3.72;;;18.70;78.70;;;;;;5075492;28;20036;-69
2022/10/23 11:28:15;;;;;;;4.60;4.05;;;18.60;79.60;;;;;;5075344;28;20032;-68
2022/10/23 11:30:52;;;;;;;3.97;3.42;;;18.70;79.60;;;;;;5075569;28;20025;-68
2022/10/23 11:33:24;;;;;;;3.83;3.45;;;18.70;80.80;;;;;;5075520;28;20060;-69
2022/10/23 11:35:50;;;;;;;4.78;4.18;;;18.70;80.40;;;;;;5075273;28;20028;-67
2022/10/23 11:38:37;;;;;;;4.32;3.92;;;18.60;80.40;;;;;;5075573;28;20361;-69
2022/10/23 11:41:17;;;;;;;4.47;3.78;;;18.60;81.00;;;;;;5075053;28;20037;-68
2022/10/23 11:44:02;;;;;;;5.07;4.57;;;18.50;81.90;;;;;;5075111;28;20481;-68
2022/10/23 11:46:29;;;;;;;6.75;4.03;;;18.50;81.70;;;;;;5075065;28;20029;-69
2022/10/23 11:48:56;;;;;;;5.53;4.07;;;18.50;82.60;;;;;;5075588;28;20048;-68
2022/10/23 11:51:32;;;;;;;4.45;3.80;;;18.50;82.70;;;;;;5056604;28;20375;-67
2022/10/23 11:54:05;;;;;;;4.05;3.65;;;18.40;83.40;;;;;;5075068;28;20131;-68
2022/10/23 11:56:32;;;;;;;4.38;3.88;;;18.40;83.40;;;;;;5074740;28;20047;-68
2022/10/23 11:59:14;;;;;;;4.75;4.25;;;18.30;84.90;;;;;;5075079;28;20028;-68
2022/10/23 12:01:44;;;;;;;5.22;4.53;;;18.30;84.50;;;;;;5074730;28;20495;-69
2022/10/23 12:04:13;;;;;;;4.13;3.65;;;18.20;84.90;;;;;;5057307;28;20377;-68
2022/10/23 12:06:52;;;;;;;4.88;4.25;;;18.20;86.30;;;;;;5074432;28;20385;-68
2022/10/23 12:09:25;;;;;;;5.63;4.95;;;18.10;86.30;;;;;;5074142;28;20112;-68
2022/10/23 12:12:27;;;;;;;7.28;5.10;;;18.00;87.20;;;;;;5075134;28;20067;-68
2022/10/23 12:15:07;;;;;;;5.65;5.13;;;17.80;89.50;;;;;;5056008;28;20087;-69
2022/10/23 12:17:36;;;;;;;6.82;6.15;;;17.70;89.70;;;;;;5054790;28;20116;-68
2022/10/23 12:20:10;;;;;;;6.85;4.80;;;17.70;90.00;;;;;;5073990;28;20020;-68
2022/10/23 12:22:46;;;;;;;5.68;4.68;;;17.60;90.50;;;;;;5072765;28;20024;-68
2022/10/23 12:25:16;;;;;;;5.68;4.82;;;17.60;90.50;;;;;;5072227;28;20078;-68
2022/10/23 12:27:57;;;;;;;6.00;4.93;;;17.50;90.70;;;;;;5073476;28;20035;-67
2022/10/23 12:30:35;;;;;;;7.55;5.88;;;17.50;91.00;;;;;;5074297;28;20039;-69
2022/10/23 12:33:24;;;;;;;8.02;7.00;;;17.40;91.10;;;;;;5090463;28;20040;-68
2022/10/23 12:36:08;;;;;;;8.07;6.72;;;17.30;91.30;;;;;;5054653;28;20112;-68
2022/10/23 12:38:44;;;;;;;12.13;8.00;;;17.20;91.50;;;;;;5054108;28;20028;-68
2022/10/23 12:41:16;;;;;;;10.68;8.48;;;17.00;92.40;;;;;;5054083;28;20469;-68
2022/10/23 12:43:49;;;;;;;10.57;7.95;;;16.70;92.80;;;;;;5054349;28;20040;-68
2022/10/23 12:46:31;;;;;;;10.43;9.32;;;16.60;94.00;;;;;;5054013;28;20033;-67
2022/10/23 12:48:59;;;;;;;9.25;7.70;;;16.50;95.00;;;;;;5070999;28;20446;-69
2022/10/23 12:51:34;;;;;;;10.02;8.10;;;16.40;95.10;;;;;;5073327;28;20028;-68
2022/10/23 12:54:01;;;;;;;7.90;6.28;;;16.30;95.40;;;;;;5070865;28;20541;-73
2022/10/23 12:56:34;;;;;;;8.05;7.22;;;16.20;96.20;;;;;;5073621;28;20469;-72
2022/10/23 12:59:00;;;;;;;8.27;7.07;;;16.00;98.40;;;;;;5074621;28;20024;-75
2022/10/23 13:01:29;;;;;;;11.00;8.27;;;15.90;99.80;;;;;;5055737;28;20028;-69
2022/10/23 13:03:59;;;;;;;11.93;7.90;;;15.90;99.90;;;;;;5073961;28;20040;-69
2022/10/23 13:06:26;;;;;;;10.87;8.03;;;15.90;99.90;;;;;;5073546;28;20350;-67